createdAt,value
2022-10-06T00:02:19.190Z,3.63
2022-10-06T00:04:46.572Z,5.00
2022-10-06T00:07:13.165Z,4.10
2022-10-06T00:09:39.578Z,4.25
2022-10-06T00:12:06.872Z,3.65
2022-10-06T00:14:33.832Z,4.03
2022-10-06T00:17:00.241Z,4.50
2022-10-06T00:19:26.660Z,4.32
2022-10-06T00:21:53.186Z,4.10
2022-10-06T00:24:19.586Z,3.72
2022-10-06T00:26:47.214Z,4.00
2022-10-06T00:29:14.692Z,5.63
2022-10-06T00:31:41.741Z,4.22
2022-10-06T00:34:08.257Z,3.85
2022-10-06T00:36:34.679Z,3.42
2022-10-06T00:39:01.186Z,3.92
2022-10-06T00:41:27.555Z,3.88
2022-10-06T00:43:58.744Z,4.05
2022-10-06T00:46:47.346Z,4.18
2022-10-06T00:49:20.728Z,4.50
2022-10-06T00:51:51.372Z,3.83
2022-10-06T00:54:19.169Z,4.45
2022-10-06T00:56:46.540Z,4.93
2022-10-06T00:59:17.465Z,4.63
2022-10-06T01:02:01.943Z,5.20
2022-10-06T01:04:36.184Z,4.38
2022-10-06T01:07:03.439Z,4.30
2022-10-06T01:09:31.321Z,3.90
2022-10-06T01:12:00.870Z,4.40
2022-10-06T01:14:28.830Z,3.90
2022-10-06T01:17:07.607Z,3.60
2022-10-06T01:19:52.646Z,3.95
2022-10-06T01:22:48.040Z,4.10
2022-10-06T01:25:19.896Z,4.25
2022-10-06T01:27:53.398Z,4.32
2022-10-06T01:30:30.083Z,4.70
2022-10-06T01:32:56.684Z,4.68
2022-10-06T01:35:23.887Z,3.75
2022-10-06T01:37:50.502Z,4.40
2022-10-06T01:40:20.281Z,4.45
2022-10-06T01:42:47.849Z,4.32
2022-10-06T01:45:14.497Z,4.35
2022-10-06T01:47:41.431Z,5.10
2022-10-06T01:50:09.974Z,5.00
2022-10-06T01:52:37.269Z,5.68
2022-10-06T01:55:05.468Z,4.50
2022-10-06T01:57:32.374Z,4.68
2022-10-06T01:59:58.788Z,5.15
2022-10-06T02:02:25.293Z,4.20
2022-10-06T02:04:51.796Z,4.88
2022-10-06T02:07:22.081Z,5.03
2022-10-06T02:09:50.881Z,4.80
2022-10-06T02:12:17.444Z,5.10
2022-10-06T02:14:43.900Z,4.72
2022-10-06T02:17:14.057Z,4.43
2022-10-06T02:19:40.458Z,4.68
2022-10-06T02:22:06.889Z,4.70
2022-10-06T02:24:33.386Z,3.97
2022-10-06T02:27:03.249Z,4.03
2022-10-06T02:29:31.047Z,4.18
2022-10-06T02:31:57.959Z,4.03
2022-10-06T02:34:24.777Z,3.58
2022-10-06T02:36:52.406Z,4.10
2022-10-06T02:39:18.789Z,4.38
2022-10-06T02:41:46.519Z,4.60
2022-10-06T02:44:12.928Z,3.53
2022-10-06T02:46:41.819Z,3.60
2022-10-06T02:49:08.236Z,2.38
2022-10-06T02:51:35.573Z,1.45
2022-10-06T02:54:02.760Z,1.33
2022-10-06T02:56:29.253Z,1.23
2022-10-06T02:58:56.527Z,1.33
2022-10-06T03:01:28.596Z,1.05
2022-10-06T03:04:01.459Z,0.90
2022-10-06T03:06:31.147Z,1.35
2022-10-06T03:09:10.214Z,1.52
2022-10-06T03:11:42.424Z,1.17
2022-10-06T03:14:11.650Z,0.98
2022-10-06T03:16:40.984Z,0.90
2022-10-06T03:19:13.232Z,1.00
2022-10-06T03:21:43.077Z,0.77
2022-10-06T03:24:11.692Z,1.08
2022-10-06T03:26:44.749Z,1.70
2022-10-06T03:29:16.264Z,0.85
2022-10-06T03:31:47.457Z,1.10
2022-10-06T03:34:15.233Z,1.13
2022-10-06T03:36:44.128Z,0.98
2022-10-06T03:39:14.526Z,0.85
2022-10-06T03:41:44.342Z,1.00
2022-10-06T03:44:11.388Z,1.35
2022-10-06T03:46:40.942Z,1.00
2022-10-06T03:49:08.081Z,1.02
2022-10-06T03:51:40.311Z,1.08
2022-10-06T03:54:12.396Z,0.90
2022-10-06T03:56:42.000Z,0.98
2022-10-06T03:59:13.642Z,1.88
2022-10-06T04:01:47.268Z,1.65
2022-10-06T04:04:18.353Z,1.52
2022-10-06T04:06:48.801Z,2.00
2022-10-06T04:09:17.993Z,4.40
2022-10-06T04:11:44.840Z,3.30
2022-10-06T04:14:15.189Z,1.90
2022-10-06T04:16:43.160Z,2.20
2022-10-06T04:19:11.941Z,1.50
2022-10-06T04:21:44.130Z,1.50
2022-10-06T04:24:13.959Z,1.35
2022-10-06T04:26:45.339Z,0.85
2022-10-06T04:29:13.068Z,1.38
2022-10-06T04:31:42.257Z,1.38
2022-10-06T04:34:15.594Z,1.42
2022-10-06T04:36:43.484Z,1.50
2022-10-06T04:39:13.886Z,1.23
2022-10-06T04:41:47.039Z,1.50
2022-10-06T04:44:17.621Z,2.38
2022-10-06T04:46:45.149Z,2.00
2022-10-06T04:49:21.016Z,2.25
2022-10-06T04:51:50.747Z,1.55
2022-10-06T04:54:18.921Z,1.65
2022-10-06T04:56:46.732Z,1.20
2022-10-06T04:59:14.695Z,1.83
2022-10-06T05:01:43.087Z,1.48
2022-10-06T05:04:11.995Z,1.33
2022-10-06T05:06:41.534Z,1.50
2022-10-06T05:09:10.760Z,1.50
2022-10-06T05:11:39.213Z,1.13
2022-10-06T05:14:08.429Z,1.40
2022-10-06T05:16:38.604Z,1.35
2022-10-06T05:19:08.105Z,1.67
2022-10-06T05:21:36.612Z,1.45
2022-10-06T05:24:03.462Z,1.27
2022-10-06T05:26:31.884Z,1.30
2022-10-06T05:29:00.312Z,1.10
2022-10-06T05:31:31.440Z,1.48
2022-10-06T05:33:59.375Z,2.00
2022-10-06T05:36:29.820Z,1.33
2022-10-06T05:38:57.729Z,1.85
2022-10-06T05:41:30.538Z,1.85
2022-10-06T05:43:59.911Z,2.00
2022-10-06T05:46:29.598Z,1.55
2022-10-06T05:48:59.766Z,1.73
2022-10-06T05:51:33.908Z,1.55
2022-10-06T05:54:04.736Z,1.95
2022-10-06T05:56:36.456Z,2.13
2022-10-06T05:59:04.268Z,1.70
2022-10-06T06:01:42.208Z,1.48
2022-10-06T06:04:29.205Z,1.38
2022-10-06T06:06:56.535Z,1.38
2022-10-06T06:09:26.113Z,1.67
2022-10-06T06:11:54.407Z,1.63
2022-10-06T06:14:44.370Z,1.88
2022-10-06T06:17:15.408Z,2.40
2022-10-06T06:19:41.807Z,1.50
2022-10-06T06:22:08.953Z,2.00
2022-10-06T06:24:38.585Z,2.72
2022-10-06T06:27:05.040Z,2.13
2022-10-06T06:29:31.476Z,2.03
2022-10-06T06:31:57.873Z,2.40
2022-10-06T06:34:26.847Z,3.25
2022-10-06T06:36:55.065Z,3.38
2022-10-06T06:39:21.512Z,3.55
2022-10-06T06:41:49.666Z,2.90
2022-10-06T06:44:51.289Z,2.53
2022-10-06T06:47:26.713Z,2.38
2022-10-06T06:49:53.925Z,1.98
2022-10-06T06:52:21.109Z,1.33
2022-10-06T06:54:49.820Z,1.95
2022-10-06T06:57:18.130Z,2.10
2022-10-06T06:59:45.512Z,1.60
2022-10-06T07:02:14.425Z,1.73
2022-10-06T07:04:43.960Z,1.85
2022-10-06T07:07:13.287Z,1.60
2022-10-06T07:09:40.777Z,1.90
2022-10-06T07:12:11.318Z,1.83
2022-10-06T07:14:59.966Z,1.60
2022-10-06T07:17:47.366Z,1.70
2022-10-06T07:20:32.930Z,1.92
2022-10-06T07:23:18.274Z,2.08
2022-10-06T07:25:45.375Z,1.90
2022-10-06T07:28:15.271Z,1.90
2022-10-06T07:30:41.736Z,1.77
2022-10-06T07:33:19.797Z,2.10
2022-10-06T07:35:47.866Z,1.95
2022-10-06T07:38:16.869Z,2.85
2022-10-06T07:41:17.733Z,1.70
2022-10-06T07:43:41.907Z,1.75
2022-10-06T07:46:11.874Z,1.80
2022-10-06T07:48:44.437Z,2.20
2022-10-06T07:51:14.337Z,2.40
2022-10-06T07:53:42.295Z,2.00
2022-10-06T07:56:15.734Z,1.98
2022-10-06T07:58:47.697Z,2.00
2022-10-06T08:01:17.410Z,1.95
2022-10-06T08:03:45.756Z,2.90
2022-10-06T08:06:14.155Z,1.95
2022-10-06T08:08:41.847Z,2.75
2022-10-06T08:11:09.072Z,2.65
2022-10-06T08:13:38.567Z,3.72
2022-10-06T08:16:11.120Z,2.15
2022-10-06T08:18:46.583Z,1.98
2022-10-06T08:21:22.128Z,1.92
2022-10-06T08:23:49.814Z,1.95
2022-10-06T08:26:19.625Z,3.08
2022-10-06T08:28:51.553Z,1.90
2022-10-06T08:31:21.163Z,1.95
2022-10-06T08:33:48.462Z,1.95
2022-10-06T08:36:19.681Z,3.28
2022-10-06T08:38:49.772Z,2.25
2022-10-06T08:41:39.567Z,2.35
2022-10-06T08:44:16.474Z,2.90
2022-10-06T08:46:50.185Z,2.67
2022-10-06T08:49:20.151Z,1.77
2022-10-06T08:52:05.079Z,1.48
2022-10-06T08:54:48.914Z,1.70
2022-10-06T08:57:30.706Z,2.08
2022-10-06T08:59:58.318Z,2.13
2022-10-06T09:02:33.002Z,2.55
2022-10-06T09:05:03.435Z,1.63
2022-10-06T09:07:42.093Z,1.73
2022-10-06T09:10:25.473Z,2.42
2022-10-06T09:13:00.802Z,2.13
2022-10-06T09:15:46.592Z,1.50
2022-10-06T09:18:22.632Z,1.85
2022-10-06T09:20:57.064Z,2.03
2022-10-06T09:23:43.588Z,1.95
2022-10-06T09:26:15.430Z,1.98
2022-10-06T09:28:46.083Z,3.50
2022-10-06T09:31:21.729Z,1.73
2022-10-06T09:33:51.390Z,2.05
2022-10-06T09:36:17.825Z,2.05
2022-10-06T09:38:53.606Z,2.25
2022-10-06T09:41:25.361Z,1.90
2022-10-06T09:44:03.242Z,2.15
2022-10-06T09:46:33.381Z,1.60
2022-10-06T09:49:13.005Z,2.63
2022-10-06T09:51:39.468Z,1.58
2022-10-06T09:54:14.812Z,2.25
2022-10-06T09:56:43.157Z,1.88
2022-10-06T09:59:23.371Z,2.08
2022-10-06T10:01:55.339Z,2.95
2022-10-06T10:04:37.405Z,2.40
2022-10-06T10:07:35.097Z,1.60
2022-10-06T10:10:19.144Z,1.85
2022-10-06T10:12:54.464Z,2.33
2022-10-06T10:15:20.867Z,1.50
2022-10-06T10:17:55.694Z,2.33
2022-10-06T10:20:24.895Z,1.30
2022-10-06T10:22:53.018Z,1.77
2022-10-06T10:25:47.456Z,2.97
2022-10-06T10:28:19.799Z,2.17
2022-10-06T10:31:07.758Z,2.75
2022-10-06T10:33:54.228Z,2.35
2022-10-06T10:36:39.959Z,1.85
2022-10-06T10:39:14.042Z,1.60
2022-10-06T10:41:47.627Z,2.90
2022-10-06T10:44:37.791Z,2.47
2022-10-06T10:47:25.876Z,2.13
2022-10-06T10:50:06.219Z,1.88
2022-10-06T10:52:41.290Z,2.30
2022-10-06T10:55:23.195Z,2.40
2022-10-06T10:57:51.681Z,2.38
2022-10-06T11:00:25.884Z,2.78
2022-10-06T11:02:55.391Z,2.30
2022-10-06T11:05:53.428Z,1.70
2022-10-06T11:08:43.755Z,1.95
2022-10-06T11:11:20.397Z,1.98
2022-10-06T11:13:50.769Z,2.50
2022-10-06T11:16:36.979Z,2.33
2022-10-06T11:19:25.906Z,2.85
2022-10-06T11:22:04.144Z,1.83
2022-10-06T11:24:52.575Z,2.30
2022-10-06T11:27:36.731Z,3.05
2022-10-06T11:30:26.165Z,2.80
2022-10-06T11:33:17.301Z,2.58
2022-10-06T11:35:46.677Z,1.70
2022-10-06T11:38:15.775Z,2.45
2022-10-06T11:41:00.789Z,2.90
2022-10-06T11:43:35.571Z,2.05
2022-10-06T11:46:27.382Z,2.60
2022-10-06T11:49:35.214Z,2.38
2022-10-06T11:52:08.670Z,3.17
2022-10-06T11:54:44.614Z,2.60
2022-10-06T11:57:31.632Z,4.20
2022-10-06T12:00:16.054Z,2.58
2022-10-06T12:02:44.435Z,2.22
2022-10-06T12:05:47.154Z,2.67
2022-10-06T12:08:00.853Z,1.42
2022-10-06T12:10:28.184Z,1.55
2022-10-06T12:13:40.031Z,1.95
2022-10-06T12:19:05.483Z,2.53
2022-10-06T12:21:54.579Z,1.83
2022-10-06T12:24:42.787Z,1.85
2022-10-06T12:27:26.070Z,2.10
2022-10-06T12:30:03.002Z,2.00
2022-10-06T12:32:49.000Z,1.85
2022-10-06T12:35:33.981Z,2.38
2022-10-06T12:38:04.652Z,1.48
2022-10-06T12:40:51.167Z,2.70
2022-10-06T12:43:17.470Z,2.47
2022-10-06T12:45:48.187Z,1.73
2022-10-06T12:48:21.801Z,1.75
2022-10-06T12:50:54.572Z,2.25
2022-10-06T12:53:28.801Z,2.10
2022-10-06T12:56:01.933Z,1.80
2022-10-06T13:01:10.030Z,1.75
2022-10-06T13:03:37.388Z,1.92
2022-10-06T13:06:06.251Z,2.08
2022-10-06T13:08:38.038Z,2.25
2022-10-06T13:11:21.675Z,2.95
2022-10-06T13:13:54.287Z,2.15
2022-10-06T13:16:26.661Z,1.75
2022-10-06T13:19:01.085Z,2.13
2022-10-06T13:21:29.961Z,1.38
2022-10-06T13:23:56.575Z,1.77
2022-10-06T13:26:32.665Z,1.92
2022-10-06T13:28:59.920Z,1.45
2022-10-06T13:31:33.502Z,2.13
2022-10-06T13:34:10.669Z,1.20
2022-10-06T13:36:46.718Z,1.70
2022-10-06T13:39:18.320Z,2.47
2022-10-06T13:41:49.411Z,1.70
2022-10-06T13:44:28.631Z,1.85
2022-10-06T13:47:00.311Z,1.50
2022-10-06T13:49:47.256Z,1.58
2022-10-06T13:52:25.085Z,1.85
2022-10-06T13:54:57.345Z,2.78
2022-10-06T13:57:44.015Z,1.60
2022-10-06T14:00:25.064Z,1.85
2022-10-06T14:02:55.762Z,1.60
2022-10-06T14:05:39.916Z,9.48
2022-10-06T14:08:12.487Z,2.40
2022-10-06T14:10:55.337Z,1.58
2022-10-06T14:13:29.583Z,1.45
2022-10-06T14:16:05.138Z,1.40
2022-10-06T14:18:46.644Z,1.83
2022-10-06T14:21:41.653Z,2.17
2022-10-06T14:24:16.866Z,1.67
2022-10-06T14:26:45.203Z,2.22
2022-10-06T14:29:14.002Z,2.05
2022-10-06T14:31:40.467Z,1.70
2022-10-06T14:34:14.182Z,1.20
2022-10-06T14:36:42.313Z,1.50
2022-10-06T14:39:11.966Z,1.65
2022-10-06T14:41:38.745Z,1.65
2022-10-06T14:44:09.661Z,1.17
2022-10-06T14:46:37.648Z,1.58
2022-10-06T14:49:09.435Z,1.25
2022-10-06T14:51:37.418Z,1.90
2022-10-06T14:54:05.167Z,1.35
2022-10-06T14:56:33.442Z,1.20
2022-10-06T14:59:03.064Z,1.77
2022-10-06T15:01:31.098Z,1.40
2022-10-06T15:04:00.221Z,1.25
2022-10-06T15:06:46.085Z,1.45
2022-10-06T15:09:12.859Z,2.53
2022-10-06T15:11:39.804Z,1.40
2022-10-06T15:14:08.417Z,1.73
2022-10-06T15:16:36.895Z,1.63
2022-10-06T15:19:05.389Z,1.65
2022-10-06T15:21:33.016Z,1.17
2022-10-06T15:24:02.048Z,1.50
2022-10-06T15:26:47.533Z,1.95
2022-10-06T15:29:14.595Z,1.80
2022-10-06T15:31:43.452Z,1.58
2022-10-06T15:34:12.316Z,1.83
2022-10-06T15:36:41.378Z,2.25
2022-10-06T15:39:10.593Z,2.08
2022-10-06T15:41:39.169Z,1.73
2022-10-06T15:44:06.652Z,3.58
2022-10-06T15:46:35.868Z,2.00
2022-10-06T15:49:07.294Z,4.63
2022-10-06T15:51:47.239Z,4.85
2022-10-06T15:54:19.288Z,2.95
2022-10-06T15:56:47.561Z,2.40
2022-10-06T15:59:15.454Z,3.03
2022-10-06T16:01:46.381Z,2.60
2022-10-06T16:04:21.514Z,2.50
2022-10-06T16:06:54.264Z,1.73
2022-10-06T16:09:21.897Z,1.48
2022-10-06T16:11:48.447Z,1.58
2022-10-06T16:14:15.887Z,2.17
2022-10-06T16:16:43.970Z,1.20
2022-10-06T16:19:10.688Z,1.38
2022-10-06T16:21:39.340Z,1.40
2022-10-06T16:24:05.826Z,1.35
2022-10-06T16:26:33.317Z,1.98
2022-10-06T16:29:00.138Z,1.35
2022-10-06T16:31:26.868Z,1.40
2022-10-06T16:33:53.516Z,1.25
2022-10-06T16:36:20.027Z,2.00
2022-10-06T16:38:50.006Z,1.45
2022-10-06T16:41:17.252Z,1.85
2022-10-06T16:43:46.037Z,1.30
2022-10-06T16:46:18.524Z,2.20
2022-10-06T16:48:47.406Z,1.63
2022-10-06T16:51:16.682Z,1.17
2022-10-06T16:53:47.604Z,2.00
2022-10-06T16:56:22.816Z,1.50
2022-10-06T16:58:54.870Z,1.42
2022-10-06T17:01:25.606Z,1.80
2022-10-06T17:04:00.368Z,1.63
2022-10-06T17:06:27.268Z,1.60
2022-10-06T17:08:53.674Z,1.50
2022-10-06T17:11:21.901Z,1.67
2022-10-06T17:13:49.217Z,1.23
2022-10-06T17:16:18.155Z,1.40
2022-10-06T17:18:54.043Z,1.85
2022-10-06T17:21:44.356Z,2.25
2022-10-06T17:24:09.378Z,1.40
2022-10-06T17:26:38.256Z,1.45
2022-10-06T17:29:07.948Z,2.33
2022-10-06T17:31:38.293Z,2.47
2022-10-06T17:34:11.809Z,2.10
2022-10-06T17:36:50.467Z,1.83
2022-10-06T17:39:19.770Z,4.97
2022-10-06T17:41:49.253Z,3.72
2022-10-06T17:44:23.124Z,2.38
2022-10-06T17:46:52.502Z,3.05
2022-10-06T17:49:20.826Z,2.45
2022-10-06T17:51:48.294Z,2.63
2022-10-06T17:54:18.858Z,4.72
2022-10-06T17:56:47.486Z,4.80
2022-10-06T17:59:17.326Z,4.25
2022-10-06T18:01:47.115Z,3.55
2022-10-06T18:04:17.329Z,3.90
2022-10-06T18:06:46.055Z,3.65
2022-10-06T18:09:12.646Z,2.42
2022-10-06T18:11:41.582Z,2.65
2022-10-06T18:14:12.939Z,2.88
2022-10-06T18:16:42.459Z,3.22
2022-10-06T18:19:11.137Z,2.33
2022-10-06T18:21:39.281Z,2.72
2022-10-06T18:24:09.120Z,2.00
2022-10-06T18:26:37.989Z,2.97
2022-10-06T18:29:05.779Z,3.13
2022-10-06T18:31:32.777Z,2.63
2022-10-06T18:36:48.206Z,2.85
2022-10-06T18:39:14.639Z,3.05
2022-10-06T18:41:41.042Z,2.95
2022-10-06T18:44:08.887Z,2.58
2022-10-06T18:46:54.464Z,3.60
2022-10-06T18:49:23.011Z,3.63
2022-10-06T18:51:57.293Z,3.58
2022-10-06T18:54:26.966Z,2.42
2022-10-06T18:56:54.842Z,2.70
2022-10-06T18:59:30.952Z,3.92
2022-10-06T19:02:00.319Z,3.88
2022-10-06T19:04:28.041Z,4.35
2022-10-06T19:06:55.353Z,4.00
2022-10-06T19:09:23.885Z,3.60
2022-10-06T19:11:59.449Z,3.65
2022-10-06T19:14:47.146Z,2.83
2022-10-06T19:17:15.189Z,2.70
2022-10-06T19:19:55.411Z,2.80
2022-10-06T19:22:25.217Z,2.70
2022-10-06T19:24:53.366Z,2.53
2022-10-06T19:27:26.941Z,3.72
2022-10-06T19:29:56.863Z,3.80
2022-10-06T19:32:32.640Z,2.83
2022-10-06T19:34:59.662Z,2.53
2022-10-06T19:37:27.862Z,2.70
2022-10-06T19:40:06.508Z,4.93
2022-10-06T19:43:01.268Z,3.90
2022-10-06T19:45:27.846Z,4.50
2022-10-06T19:47:55.234Z,4.03
2022-10-06T19:50:21.629Z,4.22
2022-10-06T19:52:47.991Z,4.20
2022-10-06T19:55:14.820Z,3.55
2022-10-06T19:57:41.668Z,3.80
2022-10-06T20:00:10.082Z,4.05
2022-10-06T20:02:42.722Z,4.88
2022-10-06T20:05:15.229Z,4.03
2022-10-06T20:07:43.803Z,3.97
2022-10-06T20:10:11.793Z,3.70
2022-10-06T20:12:39.146Z,3.63
2022-10-06T20:15:06.081Z,3.85
2022-10-06T20:17:34.569Z,3.70
2022-10-06T20:20:01.779Z,4.00
2022-10-06T20:22:28.259Z,3.42
2022-10-06T20:24:54.814Z,4.45
2022-10-06T20:27:21.469Z,2.75
2022-10-06T20:29:48.018Z,3.22
2022-10-06T20:32:14.626Z,3.50
2022-10-06T20:34:42.016Z,3.53
2022-10-06T20:37:08.479Z,3.78
2022-10-06T20:39:53.448Z,3.60
2022-10-06T20:42:20.652Z,4.40
2022-10-06T20:44:47.688Z,4.35
2022-10-06T20:47:16.354Z,4.97
2022-10-06T20:49:42.802Z,5.35
2022-10-06T20:52:09.802Z,5.10
2022-10-06T20:54:37.186Z,4.43
2022-10-06T20:57:05.652Z,4.50
2022-10-06T20:59:34.961Z,3.78
2022-10-06T21:02:01.546Z,3.28
2022-10-06T21:04:28.968Z,3.67
2022-10-06T21:06:55.487Z,2.70
2022-10-06T21:09:24.047Z,3.30
2022-10-06T21:11:50.437Z,3.55
2022-10-06T21:14:17.520Z,2.75
2022-10-06T21:16:45.705Z,3.28
2022-10-06T21:19:17.308Z,3.63
2022-10-06T21:21:45.871Z,4.50
2022-10-06T21:24:15.682Z,3.20
2022-10-06T21:26:42.480Z,2.88
2022-10-06T21:29:13.940Z,3.13
2022-10-06T21:31:41.346Z,3.53
2022-10-06T21:34:07.799Z,2.15
2022-10-06T21:36:34.632Z,2.67
2022-10-06T21:39:01.534Z,2.30
2022-10-06T21:41:31.958Z,1.95
2022-10-06T21:44:02.514Z,2.08
2022-10-06T21:46:30.372Z,2.17
2022-10-06T21:48:58.623Z,2.92
2022-10-06T21:51:26.337Z,2.95
2022-10-06T21:53:53.961Z,2.28
2022-10-06T21:56:21.194Z,1.88
2022-10-06T21:58:52.558Z,2.35
2022-10-06T22:01:21.172Z,2.22
2022-10-06T22:03:48.604Z,2.10
2022-10-06T22:06:19.285Z,1.92
2022-10-06T22:08:46.581Z,2.08
2022-10-06T22:11:16.175Z,2.42
2022-10-06T22:13:45.650Z,3.03
2022-10-06T22:16:14.464Z,2.80
2022-10-06T22:18:41.855Z,2.17
2022-10-06T22:21:17.368Z,2.45
2022-10-06T22:23:45.355Z,1.90
2022-10-06T22:26:14.272Z,2.00
2022-10-06T22:28:48.493Z,2.67
2022-10-06T22:31:16.674Z,2.67
2022-10-06T22:33:44.336Z,2.47
2022-10-06T22:36:13.539Z,2.83
2022-10-06T22:38:40.381Z,2.35
2022-10-06T22:41:11.241Z,3.25
2022-10-06T22:43:38.147Z,2.50
2022-10-06T22:46:07.927Z,2.00
2022-10-06T22:48:34.804Z,2.00
2022-10-06T22:51:01.535Z,2.28
2022-10-06T22:53:30.763Z,2.20
2022-10-06T22:55:58.895Z,2.67
2022-10-06T22:58:25.472Z,2.08
2022-10-06T23:00:51.871Z,1.90
2022-10-06T23:03:18.597Z,2.97
2022-10-06T23:05:59.438Z,2.25
2022-10-06T23:08:30.190Z,2.78
2022-10-06T23:11:18.952Z,2.20
2022-10-06T23:13:46.357Z,2.40
2022-10-06T23:16:14.613Z,1.80
2022-10-06T23:18:42.371Z,2.47
2022-10-06T23:21:10.123Z,2.40
2022-10-06T23:23:37.000Z,2.05
2022-10-06T23:26:08.800Z,2.28
2022-10-06T23:28:35.452Z,1.83
2022-10-06T23:31:04.294Z,2.10
2022-10-06T23:33:31.715Z,2.30
2022-10-06T23:35:59.615Z,2.53
2022-10-06T23:38:26.463Z,2.08
2022-10-06T23:40:52.893Z,2.03
2022-10-06T23:43:19.420Z,2.30
2022-10-06T23:45:45.849Z,2.17
2022-10-06T23:48:12.435Z,1.73
2022-10-06T23:50:38.742Z,2.10
2022-10-06T23:53:05.791Z,3.70
2022-10-06T23:55:32.297Z,2.80
2022-10-06T23:58:03.144Z,2.28
